sensor_id;sensor_type;location;lat;lon;timestamp;pressure;altitude;pressure_sealevel;temperature;humidity
27334;BME280;14817;57.104;-2.094;2022-10-31T00:00:58;99704.13;;;9.84;96.91
27334;BME280;14817;57.104;-2.094;2022-10-31T00:03:25;99710.66;;;9.81;96.96
27334;BME280;14817;57.104;-2.094;2022-10-31T00:05:52;99713.50;;;9.80;97.02
27334;BME280;14817;57.104;-2.094;2022-10-31T00:08:19;99722.19;;;9.82;97.01
27334;BME280;14817;57.104;-2.094;2022-10-31T00:10:46;99722.19;;;9.82;96.66
27334;BME280;14817;57.104;-2.094;2022-10-31T00:13:13;99723.16;;;9.81;96.75
27334;BME280;14817;57.104;-2.094;2022-10-31T00:15:41;99724.69;;;9.84;96.85
27334;BME280;14817;57.104;-2.094;2022-10-31T00:18:09;99730.34;;;9.80;96.81
27334;BME280;14817;57.104;-2.094;2022-10-31T00:20:37;99736.88;;;9.78;96.76
27334;BME280;14817;57.104;-2.094;2022-10-31T00:23:05;99749.91;;;9.73;96.87
27334;BME280;14817;57.104;-2.094;2022-10-31T00:25:35;99749.91;;;9.65;96.86
27334;BME280;14817;57.104;-2.094;2022-10-31T00:28:03;99750.22;;;9.61;97.11
27334;BME280;14817;57.104;-2.094;2022-10-31T00:30:30;99753.91;;;9.60;97.19
27334;BME280;14817;57.104;-2.094;2022-10-31T00:32:57;99749.56;;;9.59;97.25
27334;BME280;14817;57.104;-2.094;2022-10-31T00:35:25;99753.25;;;9.58;97.56
27334;BME280;14817;57.104;-2.094;2022-10-31T00:37:52;99756.75;;;9.59;97.42
27334;BME280;14817;57.104;-2.094;2022-10-31T00:40:19;99759.41;;;9.59;97.39
27334;BME280;14817;57.104;-2.094;2022-10-31T00:42:46;99767.59;;;9.57;97.15
27334;BME280;14817;57.104;-2.094;2022-10-31T00:45:12;99760.25;;;9.59;97.53
27334;BME280;14817;57.104;-2.094;2022-10-31T00:47:39;99771.28;;;9.56;97.25
27334;BME280;14817;57.104;-2.094;2022-10-31T00:50:06;99774.94;;;9.55;97.38
27334;BME280;14817;57.104;-2.094;2022-10-31T00:55:10;99766.91;;;9.55;97.03
27334;BME280;14817;57.104;-2.094;2022-10-31T00:57:36;99770.94;;;9.59;97.29
27334;BME280;14817;57.104;-2.094;2022-10-31T01:00:05;99778.28;;;9.57;97.18
27334;BME280;14817;57.104;-2.094;2022-10-31T01:02:31;99772.78;;;9.59;97.00
27334;BME280;14817;57.104;-2.094;2022-10-31T01:04:59;99767.13;;;9.54;96.95
27334;BME280;14817;57.104;-2.094;2022-10-31T01:07:26;99767.59;;;9.57;96.88
27334;BME280;14817;57.104;-2.094;2022-10-31T01:09:53;99763.59;;;9.61;96.59
27334;BME280;14817;57.104;-2.094;2022-10-31T01:12:20;99775.97;;;9.63;96.61
27334;BME280;14817;57.104;-2.094;2022-10-31T01:14:47;99776.13;;;9.61;96.29
27334;BME280;14817;57.104;-2.094;2022-10-31T01:17:17;99782.81;;;9.57;96.63
27334;BME280;14817;57.104;-2.094;2022-10-31T01:19:45;99782.47;;;9.60;96.74
27334;BME280;14817;57.104;-2.094;2022-10-31T01:22:28;99781.63;;;9.59;96.63
27334;BME280;14817;57.104;-2.094;2022-10-31T01:24:57;99780.97;;;9.57;96.80
27334;BME280;14817;57.104;-2.094;2022-10-31T01:27:24;99779.63;;;9.53;96.72
27334;BME280;14817;57.104;-2.094;2022-10-31T01:29:51;99781.31;;;9.54;96.78
27334;BME280;14817;57.104;-2.094;2022-10-31T01:32:18;99786.66;;;9.54;96.72
27334;BME280;14817;57.104;-2.094;2022-10-31T01:34:44;99787.81;;;9.60;96.68
27334;BME280;14817;57.104;-2.094;2022-10-31T01:37:12;99792.47;;;9.58;96.58
27334;BME280;14817;57.104;-2.094;2022-10-31T01:39:39;99782.47;;;9.60;96.71
27334;BME280;14817;57.104;-2.094;2022-10-31T01:42:06;99786.66;;;9.54;96.73
27334;BME280;14817;57.104;-2.094;2022-10-31T01:47:12;99785.97;;;9.52;97.10
27334;BME280;14817;57.104;-2.094;2022-10-31T01:49:46;99784.97;;;9.53;96.74
27334;BME280;14817;57.104;-2.094;2022-10-31T01:52:22;99785.63;;;9.55;97.34
27334;BME280;14817;57.104;-2.094;2022-10-31T01:55:04;99795.00;;;9.59;97.29
27334;BME280;14817;57.104;-2.094;2022-10-31T01:57:33;99784.81;;;9.63;97.07
27334;BME280;14817;57.104;-2.094;2022-10-31T02:00:06;99789.53;;;9.69;96.98
27334;BME280;14817;57.104;-2.094;2022-10-31T02:02:44;99791.69;;;9.74;96.41
27334;BME280;14817;57.104;-2.094;2022-10-31T02:05:15;99783.31;;;9.77;96.71
27334;BME280;14817;57.104;-2.094;2022-10-31T02:10:19;99788.88;;;9.75;96.61
27334;BME280;14817;57.104;-2.094;2022-10-31T02:12:49;99791.19;;;9.78;96.58
27334;BME280;14817;57.104;-2.094;2022-10-31T02:15:16;99789.69;;;9.76;96.81
27334;BME280;14817;57.104;-2.094;2022-10-31T02:17:43;99784.00;;;9.71;97.15
27334;BME280;14817;57.104;-2.094;2022-10-31T02:20:12;99794.38;;;9.74;96.93
27334;BME280;14817;57.104;-2.094;2022-10-31T02:25:36;99804.56;;;9.87;96.30
27334;BME280;14817;57.104;-2.094;2022-10-31T02:28:29;99806.44;;;9.94;96.30
27334;BME280;14817;57.104;-2.094;2022-10-31T02:34:21;99810.25;;;9.92;96.38
27334;BME280;14817;57.104;-2.094;2022-10-31T02:37:00;99817.13;;;9.86;96.71
27334;BME280;14817;57.104;-2.094;2022-10-31T02:43:05;99808.94;;;9.79;96.99
27334;BME280;14817;57.104;-2.094;2022-10-31T02:45:45;99817.94;;;9.78;97.02
27334;BME280;14817;57.104;-2.094;2022-10-31T02:48:19;99816.44;;;9.76;97.07
27334;BME280;14817;57.104;-2.094;2022-10-31T02:50:54;99817.59;;;9.73;97.74
27334;BME280;14817;57.104;-2.094;2022-10-31T02:53:22;99816.09;;;9.79;97.82
27334;BME280;14817;57.104;-2.094;2022-10-31T02:55:54;99820.44;;;9.80;97.56
27334;BME280;14817;57.104;-2.094;2022-10-31T02:58:24;99815.41;;;9.77;97.76
27334;BME280;14817;57.104;-2.094;2022-10-31T03:06:52;99829.31;;;9.89;97.88
27334;BME280;14817;57.104;-2.094;2022-10-31T03:12:11;99818.66;;;10.05;96.69
27334;BME280;14817;57.104;-2.094;2022-10-31T03:14:50;99809.28;;;10.09;96.63
27334;BME280;14817;57.104;-2.094;2022-10-31T03:17:33;99801.41;;;10.08;96.69
27334;BME280;14817;57.104;-2.094;2022-10-31T03:20:04;99810.78;;;10.12;96.31
27334;BME280;14817;57.104;-2.094;2022-10-31T03:22:33;99826.34;;;10.16;95.92
27334;BME280;14817;57.104;-2.094;2022-10-31T03:25:02;99822.16;;;10.22;95.77
27334;BME280;14817;57.104;-2.094;2022-10-31T03:27:33;99826.53;;;10.31;95.06
27334;BME280;14817;57.104;-2.094;2022-10-31T03:30:04;99824.50;;;10.25;95.54
27334;BME280;14817;57.104;-2.094;2022-10-31T03:32:47;99826.66;;;10.21;95.76
27334;BME280;14817;57.104;-2.094;2022-10-31T03:35:17;99832.88;;;10.14;96.07
27334;BME280;14817;57.104;-2.094;2022-10-31T03:37:46;99826.00;;;10.19;96.09
27334;BME280;14817;57.104;-2.094;2022-10-31T03:40:16;99821.31;;;10.21;96.04
27334;BME280;14817;57.104;-2.094;2022-10-31T03:42:51;99827.84;;;10.19;95.81
27334;BME280;14817;57.104;-2.094;2022-10-31T03:45:24;99821.31;;;10.13;96.10
27334;BME280;14817;57.104;-2.094;2022-10-31T03:47:53;99815.78;;;10.07;96.28
27334;BME280;14817;57.104;-2.094;2022-10-31T03:50:21;99812.13;;;10.08;96.48
27334;BME280;14817;57.104;-2.094;2022-10-31T03:53:13;99811.09;;;10.09;96.27
27334;BME280;14817;57.104;-2.094;2022-10-31T03:55:42;99820.00;;;10.09;96.27
27334;BME280;14817;57.104;-2.094;2022-10-31T03:58:18;99815.47;;;10.01;96.63
27334;BME280;14817;57.104;-2.094;2022-10-31T04:00:48;99809.78;;;9.96;96.58
27334;BME280;14817;57.104;-2.094;2022-10-31T04:05:52;99794.22;;;9.92;96.86
27334;BME280;14817;57.104;-2.094;2022-10-31T04:08:24;99797.22;;;9.89;97.05
27334;BME280;14817;57.104;-2.094;2022-10-31T04:10:54;99795.38;;;9.89;97.06
27334;BME280;14817;57.104;-2.094;2022-10-31T04:13:29;99793.22;;;9.93;96.96
27334;BME280;14817;57.104;-2.094;2022-10-31T04:16:05;99800.56;;;9.91;96.74
27334;BME280;14817;57.104;-2.094;2022-10-31T04:18:32;99797.06;;;9.90;97.04
27334;BME280;14817;57.104;-2.094;2022-10-31T04:21:01;99792.72;;;9.89;97.06
27334;BME280;14817;57.104;-2.094;2022-10-31T04:23:29;99797.22;;;9.89;97.25
27334;BME280;14817;57.104;-2.094;2022-10-31T04:25:58;99771.31;;;9.89;97.26
27334;BME280;14817;57.104;-2.094;2022-10-31T04:28:25;99780.69;;;9.93;97.02
27334;BME280;14817;57.104;-2.094;2022-10-31T04:30:54;99773.16;;;9.97;96.95
27334;BME280;14817;57.104;-2.094;2022-10-31T04:33:21;99763.97;;;9.99;96.59
27334;BME280;14817;57.104;-2.094;2022-10-31T04:35:48;99769.47;;;9.98;96.92
27334;BME280;14817;57.104;-2.094;2022-10-31T04:38:15;99757.13;;;9.97;97.07
27334;BME280;14817;57.104;-2.094;2022-10-31T04:40:42;99761.28;;;9.99;96.97
27334;BME280;14817;57.104;-2.094;2022-10-31T04:43:35;99750.44;;;10.01;97.05
27334;BME280;14817;57.104;-2.094;2022-10-31T04:46:02;99759.28;;;9.93;97.22
27334;BME280;14817;57.104;-2.094;2022-10-31T04:48:29;99769.31;;;9.91;97.57
27334;BME280;14817;57.104;-2.094;2022-10-31T04:51:00;99767.66;;;9.90;97.24
27334;BME280;14817;57.104;-2.094;2022-10-31T04:53:28;99769.66;;;9.88;97.56
27334;BME280;14817;57.104;-2.094;2022-10-31T04:56:13;99779.31;;;9.81;97.74
27334;BME280;14817;57.104;-2.094;2022-10-31T04:58:43;99765.78;;;9.74;97.73
27334;BME280;14817;57.104;-2.094;2022-10-31T05:01:11;99768.28;;;9.68;97.70
27334;BME280;14817;57.104;-2.094;2022-10-31T05:03:38;99766.94;;;9.64;98.17
27334;BME280;14817;57.104;-2.094;2022-10-31T05:06:06;99765.75;;;9.58;98.12
27334;BME280;14817;57.104;-2.094;2022-10-31T05:08:34;99763.56;;;9.53;98.37
27334;BME280;14817;57.104;-2.094;2022-10-31T05:11:04;99760.59;;;9.56;98.37
27334;BME280;14817;57.104;-2.094;2022-10-31T05:13:32;99767.25;;;9.52;98.49
27334;BME280;14817;57.104;-2.094;2022-10-31T05:16:10;99769.59;;;9.55;98.09
27334;BME280;14817;57.104;-2.094;2022-10-31T05:18:55;99758.59;;;9.58;98.54
27334;BME280;14817;57.104;-2.094;2022-10-31T05:21:41;99755.06;;;9.66;98.51
27334;BME280;14817;57.104;-2.094;2022-10-31T05:24:09;99756.25;;;9.64;98.43
27334;BME280;14817;57.104;-2.094;2022-10-31T05:26:38;99750.22;;;9.61;98.37
27334;BME280;14817;57.104;-2.094;2022-10-31T05:29:05;99755.56;;;9.61;98.61
27334;BME280;14817;57.104;-2.094;2022-10-31T05:31:32;99752.91;;;9.61;98.36
27334;BME280;14817;57.104;-2.094;2022-10-31T05:34:00;99748.38;;;9.62;98.66
27334;BME280;14817;57.104;-2.094;2022-10-31T05:36:32;99759.94;;;9.63;99.35
27334;BME280;14817;57.104;-2.094;2022-10-31T05:39:03;99764.13;;;9.65;99.32
27334;BME280;14817;57.104;-2.094;2022-10-31T05:41:34;99767.59;;;9.57;99.50
27334;BME280;14817;57.104;-2.094;2022-10-31T05:44:08;99780.66;;;9.60;99.62
27334;BME280;14817;57.104;-2.094;2022-10-31T05:46:50;99783.66;;;9.66;100.00
27334;BME280;14817;57.104;-2.094;2022-10-31T05:49:35;99788.69;;;9.69;100.00
27334;BME280;14817;57.104;-2.094;2022-10-31T05:52:20;99779.50;;;9.71;100.00
27334;BME280;14817;57.104;-2.094;2022-10-31T05:54:55;99782.00;;;9.81;100.00
27334;BME280;14817;57.104;-2.094;2022-10-31T05:57:22;99787.34;;;9.89;100.00
27334;BME280;14817;57.104;-2.094;2022-10-31T05:59:49;99778.34;;;9.90;100.00
27334;BME280;14817;57.104;-2.094;2022-10-31T06:02:22;99782.38;;;9.94;100.00
27334;BME280;14817;57.104;-2.094;2022-10-31T06:05:20;99781.66;;;10.00;100.00
27334;BME280;14817;57.104;-2.094;2022-10-31T06:07:47;99780.03;;;10.08;100.00
27334;BME280;14817;57.104;-2.094;2022-10-31T06:10:14;99779.84;;;10.09;100.00
27334;BME280;14817;57.104;-2.094;2022-10-31T06:12:44;99776.84;;;10.04;99.85
27334;BME280;14817;57.104;-2.094;2022-10-31T06:15:19;99778.31;;;10.07;99.92
27334;BME280;14817;57.104;-2.094;2022-10-31T06:18:01;99773.66;;;10.17;100.00
27334;BME280;14817;57.104;-2.094;2022-10-31T06:20:33;99766.28;;;10.19;100.00
27334;BME280;14817;57.104;-2.094;2022-10-31T06:23:02;99763.94;;;10.24;100.00
27334;BME280;14817;57.104;-2.094;2022-10-31T06:25:32;99769.50;;;10.31;100.00
27334;BME280;14817;57.104;-2.094;2022-10-31T06:27:59;99769.31;;;10.40;100.00
27334;BME280;14817;57.104;-2.094;2022-10-31T06:30:39;99765.28;;;10.45;100.00
27334;BME280;14817;57.104;-2.094;2022-10-31T06:33:07;99774.50;;;10.50;100.00
27334;BME280;14817;57.104;-2.094;2022-10-31T06:35:37;99774.13;;;10.53;100.00
27334;BME280;14817;57.104;-2.094;2022-10-31T06:38:04;99766.59;;;10.57;100.00
27334;BME280;14817;57.104;-2.094;2022-10-31T06:40:36;99761.94;;;10.51;100.00
27334;BME280;14817;57.104;-2.094;2022-10-31T06:43:23;99758.09;;;10.45;100.00
27334;BME280;14817;57.104;-2.094;2022-10-31T06:46:03;99761.25;;;10.49;100.00
27334;BME280;14817;57.104;-2.094;2022-10-31T06:48:37;99770.78;;;10.51;100.00
27334;BME280;14817;57.104;-2.094;2022-10-31T06:51:15;99771.97;;;10.57;100.00
27334;BME280;14817;57.104;-2.094;2022-10-31T06:53:42;99775.13;;;10.60;100.00
27334;BME280;14817;57.104;-2.094;2022-10-31T06:56:11;99783.84;;;10.62;100.00
27334;BME280;14817;57.104;-2.094;2022-10-31T06:58:44;99784.47;;;10.73;100.00
27334;BME280;14817;57.104;-2.094;2022-10-31T07:01:12;99785.31;;;10.73;100.00
27334;BME280;14817;57.104;-2.094;2022-10-31T07:03:39;99784.47;;;10.73;100.00
27334;BME280;14817;57.104;-2.094;2022-10-31T07:06:07;99795.53;;;10.70;100.00
27334;BME280;14817;57.104;-2.094;2022-10-31T07:08:33;99797.31;;;10.77;100.00
27334;BME280;14817;57.104;-2.094;2022-10-31T07:11:00;99795.16;;;10.81;100.00
27334;BME280;14817;57.104;-2.094;2022-10-31T07:13:28;99786.63;;;10.77;100.00
27334;BME280;14817;57.104;-2.094;2022-10-31T07:16:06;99791.34;;;10.75;100.00
27334;BME280;14817;57.104;-2.094;2022-10-31T07:18:35;99804.72;;;10.75;100.00
27334;BME280;14817;57.104;-2.094;2022-10-31T07:21:02;99801.84;;;10.77;100.00
27334;BME280;14817;57.104;-2.094;2022-10-31T07:23:29;99807.88;;;10.79;100.00
27334;BME280;14817;57.104;-2.094;2022-10-31T07:26:16;99813.22;;;10.87;100.00
27334;BME280;14817;57.104;-2.094;2022-10-31T07:28:46;99809.84;;;10.93;100.00
27334;BME280;14817;57.104;-2.094;2022-10-31T07:31:15;99814.38;;;11.01;100.00
27334;BME280;14817;57.104;-2.094;2022-10-31T07:33:42;99810.63;;;11.10;99.71
27334;BME280;14817;57.104;-2.094;2022-10-31T07:36:24;99816.50;;;11.14;99.60
27334;BME280;14817;57.104;-2.094;2022-10-31T07:38:53;99826.00;;;11.24;98.96
27334;BME280;14817;57.104;-2.094;2022-10-31T07:41:21;99818.19;;;11.46;98.41
27334;BME280;14817;57.104;-2.094;2022-10-31T07:43:48;99808.41;;;11.53;97.93
27334;BME280;14817;57.104;-2.094;2022-10-31T07:46:14;99806.41;;;11.55;97.36
27334;BME280;14817;57.104;-2.094;2022-10-31T07:49:19;99819.44;;;11.58;96.81
27334;BME280;14817;57.104;-2.094;2022-10-31T07:52:04;99818.19;;;11.69;96.06
27334;BME280;14817;57.104;-2.094;2022-10-31T07:54:51;99807.09;;;11.80;95.47
27334;BME280;14817;57.104;-2.094;2022-10-31T07:57:23;99811.25;;;11.91;95.31
27334;BME280;14817;57.104;-2.094;2022-10-31T07:59:51;99815.41;;;11.94;95.17
27334;BME280;14817;57.104;-2.094;2022-10-31T08:02:18;99815.78;;;11.91;94.95
27334;BME280;14817;57.104;-2.094;2022-10-31T08:04:48;99817.25;;;11.93;95.17
27334;BME280;14817;57.104;-2.094;2022-10-31T08:07:54;99824.28;;;11.94;94.96
27334;BME280;14817;57.104;-2.094;2022-10-31T08:10:22;99825.59;;;11.98;95.18
27334;BME280;14817;57.104;-2.094;2022-10-31T08:13:09;99823.03;;;12.05;94.92
27334;BME280;14817;57.104;-2.094;2022-10-31T08:15:39;99827.91;;;12.24;94.27
27334;BME280;14817;57.104;-2.094;2022-10-31T08:18:13;99810.19;;;12.38;93.53
27334;BME280;14817;57.104;-2.094;2022-10-31T08:20:42;99817.91;;;12.56;93.34
27334;BME280;14817;57.104;-2.094;2022-10-31T08:23:10;99802.28;;;12.75;92.82
27334;BME280;14817;57.104;-2.094;2022-10-31T08:25:37;99796.25;;;12.87;91.24
27334;BME280;14817;57.104;-2.094;2022-10-31T08:28:06;99805.44;;;12.93;90.62
27334;BME280;14817;57.104;-2.094;2022-10-31T08:30:34;99802.63;;;12.86;90.98
27334;BME280;14817;57.104;-2.094;2022-10-31T08:33:20;99789.75;;;12.67;91.95
27334;BME280;14817;57.104;-2.094;2022-10-31T08:36:26;99787.53;;;12.71;91.71
27334;BME280;14817;57.104;-2.094;2022-10-31T08:38:54;99784.34;;;12.52;91.77
27334;BME280;14817;57.104;-2.094;2022-10-31T08:41:28;99783.59;;;12.43;92.85
27334;BME280;14817;57.104;-2.094;2022-10-31T08:43:55;99771.13;;;12.36;93.12
27334;BME280;14817;57.104;-2.094;2022-10-31T08:46:21;99784.22;;;12.31;93.51
27334;BME280;14817;57.104;-2.094;2022-10-31T08:48:48;99783.19;;;12.17;94.67
27334;BME280;14817;57.104;-2.094;2022-10-31T08:51:16;99778.69;;;12.32;94.55
27334;BME280;14817;57.104;-2.094;2022-10-31T08:53:43;99779.09;;;12.44;94.35
27334;BME280;14817;57.104;-2.094;2022-10-31T08:56:30;99777.34;;;12.81;92.95
27334;BME280;14817;57.104;-2.094;2022-10-31T08:58:58;99772.81;;;12.81;92.49
27334;BME280;14817;57.104;-2.094;2022-10-31T09:01:54;99780.50;;;12.84;91.74
27334;BME280;14817;57.104;-2.094;2022-10-31T09:04:21;99770.56;;;13.15;91.39
27334;BME280;14817;57.104;-2.094;2022-10-31T09:06:49;99763.16;;;13.17;90.71
27334;BME280;14817;57.104;-2.094;2022-10-31T09:09:36;99757.38;;;13.35;90.30
27334;BME280;14817;57.104;-2.094;2022-10-31T09:12:03;99756.16;;;13.37;90.21
27334;BME280;14817;57.104;-2.094;2022-10-31T09:14:48;99756.28;;;13.29;89.68
27334;BME280;14817;57.104;-2.094;2022-10-31T09:17:23;99763.16;;;13.32;89.25
27334;BME280;14817;57.104;-2.094;2022-10-31T09:20:10;99754.69;;;13.35;89.69
27334;BME280;14817;57.104;-2.094;2022-10-31T09:22:38;99760.38;;;13.61;87.95
27334;BME280;14817;57.104;-2.094;2022-10-31T09:25:05;99739.97;;;13.01;89.60
27334;BME280;14817;57.104;-2.094;2022-10-31T09:27:32;99738.09;;;13.16;89.51
27334;BME280;14817;57.104;-2.094;2022-10-31T09:29:59;99733.66;;;13.38;89.12
27334;BME280;14817;57.104;-2.094;2022-10-31T09:32:26;99724.69;;;13.74;87.74
27334;BME280;14817;57.104;-2.094;2022-10-31T09:34:53;99724.47;;;13.97;86.27
27334;BME280;14817;57.104;-2.094;2022-10-31T09:37:20;99725.38;;;14.04;85.34
27334;BME280;14817;57.104;-2.094;2022-10-31T09:39:46;99719.25;;;13.89;86.53
27334;BME280;14817;57.104;-2.094;2022-10-31T09:48:13;99716.00;;;13.51;87.96
27334;BME280;14817;57.104;-2.094;2022-10-31T09:51:05;99716.47;;;13.61;87.65
27334;BME280;14817;57.104;-2.094;2022-10-31T09:56:31;99714.97;;;14.01;86.55
27334;BME280;14817;57.104;-2.094;2022-10-31T09:59:00;99728.56;;;14.15;85.33
27334;BME280;14817;57.104;-2.094;2022-10-31T10:01:39;99729.00;;;14.18;85.69
27334;BME280;14817;57.104;-2.094;2022-10-31T10:07:03;99733.50;;;14.11;85.42
27334;BME280;14817;57.104;-2.094;2022-10-31T10:09:50;99748.28;;;13.94;85.43
27334;BME280;14817;57.104;-2.094;2022-10-31T10:15:43;99755.53;;;14.49;84.17
27334;BME280;14817;57.104;-2.094;2022-10-31T10:32:40;99784.00;;;13.15;89.19
27334;BME280;14817;57.104;-2.094;2022-10-31T10:37:44;99791.25;;;12.84;90.58
27334;BME280;14817;57.104;-2.094;2022-10-31T10:40:17;99785.41;;;12.81;91.10
27334;BME280;14817;57.104;-2.094;2022-10-31T10:42:53;99796.25;;;12.87;90.81
27334;BME280;14817;57.104;-2.094;2022-10-31T10:45:42;99787.91;;;13.12;90.40
27334;BME280;14817;57.104;-2.094;2022-10-31T10:54:42;99793.72;;;13.16;90.47
27334;BME280;14817;57.104;-2.094;2022-10-31T10:59:38;99813.69;;;12.92;90.20
27334;BME280;14817;57.104;-2.094;2022-10-31T11:02:33;99801.53;;;12.81;91.88
27334;BME280;14817;57.104;-2.094;2022-10-31T11:05:01;99809.28;;;12.76;91.74
27334;BME280;14817;57.104;-2.094;2022-10-31T11:07:38;99792.53;;;12.88;92.03
27334;BME280;14817;57.104;-2.094;2022-10-31T11:10:12;99799.84;;;13.10;90.62
27334;BME280;14817;57.104;-2.094;2022-10-31T11:12:41;99811.25;;;13.12;90.37
27334;BME280;14817;57.104;-2.094;2022-10-31T11:15:20;99822.81;;;13.27;89.01
27334;BME280;14817;57.104;-2.094;2022-10-31T11:17:52;99813.13;;;13.41;88.56
27334;BME280;14817;57.104;-2.094;2022-10-31T11:22:47;99790.84;;;13.47;88.16
27334;BME280;14817;57.104;-2.094;2022-10-31T11:25:25;99805.69;;;13.43;88.23
27334;BME280;14817;57.104;-2.094;2022-10-31T11:28:04;99794.09;;;13.42;88.75
27334;BME280;14817;57.104;-2.094;2022-10-31T11:30:42;99791.03;;;13.45;89.13
27334;BME280;14817;57.104;-2.094;2022-10-31T11:33:23;99789.81;;;13.48;88.63
27334;BME280;14817;57.104;-2.094;2022-10-31T11:35:53;99785.69;;;13.31;89.89
27334;BME280;14817;57.104;-2.094;2022-10-31T11:38:30;99781.84;;;13.40;90.31
27334;BME280;14817;57.104;-2.094;2022-10-31T11:41:16;99778.91;;;13.35;90.20
27334;BME280;14817;57.104;-2.094;2022-10-31T11:44:03;99780.28;;;13.16;90.33
27334;BME280;14817;57.104;-2.094;2022-10-31T11:46:37;99772.03;;;13.17;90.12
27334;BME280;14817;57.104;-2.094;2022-10-31T11:49:13;99759.19;;;12.98;90.15
27334;BME280;14817;57.104;-2.094;2022-10-31T11:51:41;99762.16;;;12.73;90.65
27334;BME280;14817;57.104;-2.094;2022-10-31T11:56:53;99773.63;;;12.67;91.47
27334;BME280;14817;57.104;-2.094;2022-10-31T12:01:53;99773.44;;;12.69;91.98
27334;BME280;14817;57.104;-2.094;2022-10-31T12:06:54;99772.53;;;12.76;92.64
27334;BME280;14817;57.104;-2.094;2022-10-31T12:09:25;99778.28;;;12.73;92.23
27334;BME280;14817;57.104;-2.094;2022-10-31T12:17:25;99754.47;;;12.55;93.13
27334;BME280;14817;57.104;-2.094;2022-10-31T12:20:26;99762.78;;;12.60;92.28
27334;BME280;14817;57.104;-2.094;2022-10-31T12:28:38;99745.28;;;12.50;92.55
27334;BME280;14817;57.104;-2.094;2022-10-31T12:45:03;99750.47;;;12.51;92.67
27334;BME280;14817;57.104;-2.094;2022-10-31T12:50:47;99750.31;;;12.53;92.75
27334;BME280;14817;57.104;-2.094;2022-10-31T12:53:30;99755.84;;;12.51;92.93
27334;BME280;14817;57.104;-2.094;2022-10-31T12:56:31;99738.91;;;12.51;93.31
27334;BME280;14817;57.104;-2.094;2022-10-31T12:59:20;99738.69;;;12.52;93.37
27334;BME280;14817;57.104;-2.094;2022-10-31T13:01:55;99728.91;;;12.59;93.54
27334;BME280;14817;57.104;-2.094;2022-10-31T13:04:44;99730.28;;;12.55;93.33
27334;BME280;14817;57.104;-2.094;2022-10-31T13:07:30;99727.31;;;12.50;93.63
27334;BME280;14817;57.104;-2.094;2022-10-31T13:12:29;99715.72;;;12.35;93.41
27334;BME280;14817;57.104;-2.094;2022-10-31T13:15:21;99714.34;;;12.39;93.60
27334;BME280;14817;57.104;-2.094;2022-10-31T13:17:54;99714.53;;;12.37;93.93
27334;BME280;14817;57.104;-2.094;2022-10-31T13:20:31;99701.56;;;12.41;94.02
27334;BME280;14817;57.104;-2.094;2022-10-31T13:23:19;99692.13;;;12.45;93.49
27334;BME280;14817;57.104;-2.094;2022-10-31T13:26:11;99711.00;;;12.52;93.28
27334;BME280;14817;57.104;-2.094;2022-10-31T13:29:05;99696.94;;;12.50;93.42
27334;BME280;14817;57.104;-2.094;2022-10-31T13:31:39;99692.22;;;12.52;92.68
27334;BME280;14817;57.104;-2.094;2022-10-31T13:34:18;99692.31;;;12.58;93.18
27334;BME280;14817;57.104;-2.094;2022-10-31T13:45:14;99680.00;;;12.64;93.84
27334;BME280;14817;57.104;-2.094;2022-10-31T13:47:42;99666.56;;;12.64;93.59
27334;BME280;14817;57.104;-2.094;2022-10-31T13:52:45;99676.66;;;12.62;93.95
27334;BME280;14817;57.104;-2.094;2022-10-31T13:55:34;99662.50;;;12.53;94.04
27334;BME280;14817;57.104;-2.094;2022-10-31T13:58:54;99671.19;;;12.55;94.22
27334;BME280;14817;57.104;-2.094;2022-10-31T14:01:03;99687.97;;;12.42;94.82
27334;BME280;14817;57.104;-2.094;2022-10-31T14:03:33;99666.38;;;12.51;94.85
27334;BME280;14817;57.104;-2.094;2022-10-31T14:06:22;99663.41;;;12.45;94.50
27334;BME280;14817;57.104;-2.094;2022-10-31T14:08:51;99657.22;;;12.30;94.72
27334;BME280;14817;57.104;-2.094;2022-10-31T14:11:24;99651.19;;;12.28;95.12
27334;BME280;14817;57.104;-2.094;2022-10-31T14:14:01;99660.28;;;12.27;95.41
27334;BME280;14817;57.104;-2.094;2022-10-31T14:16:30;99668.69;;;12.24;95.02
27334;BME280;14817;57.104;-2.094;2022-10-31T14:19:06;99649.06;;;12.23;95.25
27334;BME280;14817;57.104;-2.094;2022-10-31T14:21:41;99667.22;;;12.21;95.92
27334;BME280;14817;57.104;-2.094;2022-10-31T14:29:45;99637.78;;;12.28;95.49
27334;BME280;14817;57.104;-2.094;2022-10-31T14:32:23;99650.94;;;12.23;95.91
27334;BME280;14817;57.104;-2.094;2022-10-31T14:45:48;99641.38;;;12.20;96.14
27334;BME280;14817;57.104;-2.094;2022-10-31T14:51:15;99635.81;;;12.22;96.39
27334;BME280;14817;57.104;-2.094;2022-10-31T14:53:51;99630.63;;;12.20;96.98
27334;BME280;14817;57.104;-2.094;2022-10-31T14:56:26;99632.97;;;12.23;96.81
27334;BME280;14817;57.104;-2.094;2022-10-31T14:58:55;99631.28;;;12.22;97.15
27334;BME280;14817;57.104;-2.094;2022-10-31T15:01:34;99621.75;;;12.20;97.48
27334;BME280;14817;57.104;-2.094;2022-10-31T15:04:17;99630.38;;;12.15;97.79
27334;BME280;14817;57.104;-2.094;2022-10-31T15:10:06;99633.22;;;12.14;97.29
27334;BME280;14817;57.104;-2.094;2022-10-31T15:12:34;99638.41;;;12.15;97.81
27334;BME280;14817;57.104;-2.094;2022-10-31T15:15:17;99627.50;;;12.17;97.44
27334;BME280;14817;57.104;-2.094;2022-10-31T15:17:48;99632.88;;;12.17;98.24
27334;BME280;14817;57.104;-2.094;2022-10-31T15:20:17;99626.22;;;12.13;97.68
27334;BME280;14817;57.104;-2.094;2022-10-31T15:22:44;99630.53;;;12.14;97.69
27334;BME280;14817;57.104;-2.094;2022-10-31T15:25:17;99622.88;;;12.11;97.83
27334;BME280;14817;57.104;-2.094;2022-10-31T15:27:46;99632.41;;;12.13;97.77
27334;BME280;14817;57.104;-2.094;2022-10-31T15:30:24;99616.69;;;12.10;97.77
27334;BME280;14817;57.104;-2.094;2022-10-31T15:32:51;99621.41;;;12.08;97.73
27334;BME280;14817;57.104;-2.094;2022-10-31T15:35:28;99623.44;;;12.06;97.89
27334;BME280;14817;57.104;-2.094;2022-10-31T15:37:58;99627.50;;;12.02;98.04
27334;BME280;14817;57.104;-2.094;2022-10-31T15:40:28;99616.94;;;12.00;98.42
27334;BME280;14817;57.104;-2.094;2022-10-31T15:43:00;99622.31;;;12.00;98.17
27334;BME280;14817;57.104;-2.094;2022-10-31T15:45:29;99615.47;;;11.98;98.39
27334;BME280;14817;57.104;-2.094;2022-10-31T15:47:59;99618.31;;;11.96;98.83